Hlavní strana
METAR-TAF:

METAR-TAF

Letiště :

Puerto Carreño, Kolumbie

zeměpisná šířka: 06-10N, zeměpisná délka: 067-30W, výška: 55 m

Aktuální stav počasí

Zpráva byla vytvořena před 9 hodinami a 55 minutami, v 23:00 UTC
Severoseverovýchodní vítr 8 kt
Teplota 26°C
Vlhkost vzduchu 84%
Tlak 1012 hPa
Viditelnost 10 km a více
Polojasno ve výšce 1300 ft
Oblačno až skoro zataženo ve výšce 7000 ft

METAR: SKPC 272300Z 03008KT 9999 SCT013 BKN070 26/23 A2988

Čas: 03:55 (08:55 UTC)


TAF: chybějící

Stav a předpovědi počasí z více než 4 000 letišť (zprávy METAR a TAF).

Červené a žluté tečky na mapě představují dostupné meteorologické stanice.

Když kurzor umístíte na tečku, zobrazí se název stanice.

Pak kliknutím zobrazíte stav a předpověď počasí.

Chcete-li změnit mapu, kliknutím na zelené tlačítko se znaménkem +mapu přiblížíte, kliknutím na zelené tlačítko se znaménkem – mapu oddálíte a kliknutím na zelené šipky přejdete na sousední mapy.


METAR-TAF: